Chadstone Weather > Observations for 22/03/21

Select Day:



Observations
Time Temp Hum DP Wind Gust Dir Rain >9am Press
C % C kph kph mm hPa
00:00 19.1 93 18.0 0.0 0.0 N 4.2 1008.5
00:10 18.9 94 17.9 0.0 0.0 N 4.2 1008.3
00:20 18.7 94 17.7 0.0 0.0 N 4.2 1008.4
00:30 18.6 94 17.6 0.0 0.0 N 4.2 1008.4
00:40 18.5 95 17.7 0.0 0.0 N 4.2 1008.4
00:50 18.5 95 17.7 0.0 0.0 N 4.2 1008.3
01:00 18.4 95 17.6 0.0 0.0 N 4.2 1008.2
01:10 18.3 95 17.5 0.0 0.0 N 4.2 1008.1
01:20 18.2 95 17.4 0.0 0.0 N 4.2 1007.9
01:30 18.0 96 17.4 0.0 0.0 N 4.2 1007.9
01:40 18.0 96 17.4 0.0 0.0 N 4.2 1008.0
01:50 17.9 95 17.1 0.0 0.0 N 4.2 1007.8
02:00 17.9 95 17.1 0.0 0.0 N 4.2 1007.9
02:10 18.0 96 17.4 0.0 0.0 N 4.2 1007.9
02:20 17.9 96 17.3 0.1 3.6 SE 4.2 1007.7
02:30 18.0 97 17.5 0.0 0.0 N 4.2 1007.7
02:40 18.0 97 17.5 0.0 0.0 N 4.2 1007.7
02:50 18.0 97 17.5 0.0 1.1 N 4.2 1007.8
03:00 18.1 97 17.6 0.0 0.0 N 4.2 1007.8
03:10 18.0 97 17.5 0.0 2.5 NNW 4.2 1007.7
03:20 18.1 97 17.6 0.0 0.0 N 4.2 1007.6
03:30 18.1 97 17.6 0.0 0.0 N 4.2 1007.6
03:40 18.1 97 17.6 0.0 0.0 N 4.2 1007.5
03:50 18.0 97 17.5 0.0 0.0 N 4.2 1007.4
04:00 18.0 98 17.7 0.0 0.0 N 4.2 1007.5
04:10 18.0 98 17.7 0.0 0.0 N 4.2 1007.4
04:20 18.1 98 17.8 0.0 0.0 N 4.2 1007.3
04:30 18.1 98 17.8 0.0 0.0 N 4.2 1007.2
04:40 18.1 98 17.8 0.0 0.0 N 4.2 1007.3
04:50 18.1 98 17.8 0.0 0.0 N 4.2 1007.1
05:00 18.1 98 17.8 0.8 6.1 NW 4.2 1007.1
05:10 18.1 98 17.8 2.5 14.8 NW 4.2 1007.1
05:20 18.2 98 17.9 0.5 6.1 SE 4.2 1007.1
05:30 18.2 98 17.9 0.0 0.0 N 4.2 1007.1
05:40 18.3 99 18.2 0.1 2.5 NNE 4.2 1007.2
05:50 18.3 99 18.2 0.2 5.0 WNW 4.2 1007.2
06:00 18.3 99 18.2 0.0 0.0 N 4.2 1007.2
06:10 18.3 99 18.2 0.2 3.6 S 4.2 1007.1
06:20 18.2 99 18.1 0.0 1.1 NNE 4.2 1007.2
06:30 18.2 99 18.1 0.0 1.1 SE 4.2 1007.3
06:40 18.2 99 18.1 0.0 0.0 N 4.2 1007.2
06:50 18.2 99 18.1 0.0 0.0 N 4.2 1007.3
07:00 18.2 99 18.1 0.0 0.0 N 4.2 1007.2
07:10 18.2 99 18.1 0.0 0.0 N 4.2 1007.2
07:20 18.2 99 18.1 0.0 0.0 N 4.2 1007.3
07:30 18.2 99 18.1 0.0 0.0 N 4.2 1007.1
07:40 18.2 99 18.1 0.0 0.0 N 4.2 1007.3
07:50 18.2 99 18.1 0.0 0.0 N 4.2 1007.2
08:00 18.2 99 18.1 0.0 2.5 SE 4.2 1007.1
08:10 18.2 99 18.1 0.0 0.0 N 4.2 1007.1
08:20 18.4 99 18.3 1.5 6.1 SE 4.2 1007.1
08:30 18.6 99 18.5 0.0 1.1 N 4.2 1007.2
08:40 19.0 98 18.7 0.0 0.0 N 4.2 1007.1
08:50 19.3 97 18.8 0.0 0.0 N 4.2 1007.2
09:00 19.6 96 19.0 0.0 0.0 N 4.2 1007.2
09:10 19.9 95 19.1 0.0 1.1 NE 4.2 1007.2
09:20 20.1 93 18.9 1.1 8.6 NNW 4.2 1007.4
09:30 20.3 91 18.8 0.5 6.1 WNW 4.2 1007.3
09:40 20.4 90 18.7 0.1 2.5 NW 4.2 1007.0
09:50 20.5 90 18.8 0.0 0.0 N 4.2 1007.2
10:00 20.7 89 18.8 0.2 3.6 NW 0.0 1007.3
10:10 20.9 89 19.0 0.4 5.0 NNW 0.0 1007.3
10:20 21.3 86 18.9 2.8 8.6 N 0.0 1007.3
10:30 21.6 83 18.6 3.9 8.6 NNE 0.0 1007.1
10:40 21.9 81 18.5 3.6 8.6 NE 0.0 1006.9
10:50 22.1 78 18.1 4.2 8.6 NNE 0.0 1006.9
11:00 22.5 77 18.3 5.7 12.2 NNE 0.0 1006.8
11:10 22.9 73 17.8 6.7 12.2 NNE 0.0 1006.6
11:20 23.2 70 17.4 6.5 13.3 N 0.0 1006.5
11:30 23.6 69 17.6 4.2 12.2 NNE 0.0 1006.4
11:40 23.8 67 17.3 6.1 12.2 NNE 0.0 1006.3
11:50 23.9 67 17.4 4.9 12.2 N 0.0 1006.0
12:00 24.0 66 17.3 5.4 13.3 NNE 0.0 1005.9
12:10 24.0 65 17.0 6.4 12.2 N 0.0 1005.9
12:20 24.1 65 17.1 5.7 12.2 NNE 0.0 1005.6
12:30 24.4 65 17.4 3.0 13.3 N 0.0 1005.5
12:40 24.8 64 17.5 6.8 20.9 NNW 0.0 1005.5
12:50 24.7 63 17.2 7.0 20.9 NNE 0.0 1005.2
13:00 24.5 62 16.8 10.0 19.4 NNE 0.0 1005.1
13:10 24.4 64 17.2 7.7 14.8 NNE 0.0 1005.0
13:20 24.2 64 17.0 9.5 22.0 NE 0.0 1005.0
13:30 24.1 63 16.6 10.1 22.0 NNE 0.0 1005.0
13:40 23.8 63 16.4 10.8 24.5 NE 0.0 1004.9
13:50 23.8 64 16.6 8.6 31.7 N 0.0 1004.8
14:00 23.6 64 16.4 11.8 23.4 N 0.0 1004.4
14:10 23.5 65 16.6 9.6 22.0 N 0.0 1004.4
14:20 23.3 66 16.6 7.1 20.9 NW 0.0 1004.2
14:30 23.2 68 17.0 7.2 17.3 NW 0.0 1004.0
14:40 22.8 70 17.1 6.7 17.3 NNW 0.0 1003.9
14:50 22.5 71 17.0 7.8 15.8 NNW 0.0 1003.8
15:00 22.6 73 17.5 6.2 11.2 N 0.0 1003.6
15:10 22.6 74 17.7 4.2 8.6 N 0.0 1003.5
15:20 22.4 75 17.8 5.7 13.3 NNW 0.0 1003.5
15:30 22.2 76 17.8 5.5 11.2 N 0.0 1003.4
15:40 22.2 77 18.0 4.6 8.6 NE 0.0 1003.2
15:50 22.2 77 18.0 4.1 7.2 N 0.0 1003.1
16:00 22.3 77 18.1 3.8 8.6 NE 0.0 1003.2
16:10 22.2 77 18.0 5.1 9.7 ENE 0.0 1003.0
16:20 22.2 77 18.0 3.2 8.6 NE 0.0 1002.9
16:30 22.2 77 18.0 3.4 7.2 NE 0.0 1002.7
16:40 22.3 77 18.1 1.0 6.1 NE 0.0 1002.7
16:50 22.4 77 18.2 1.7 7.2 NE 0.0 1002.6
17:00 22.3 77 18.1 0.8 5.0 NE 0.0 1002.3
17:10 22.3 78 18.3 0.5 2.5 ENE 0.0 1002.5
17:20 22.4 79 18.6 0.3 2.5 ESE 0.0 1002.4
17:30 22.3 80 18.7 1.0 3.6 ENE 0.0 1002.5
17:40 22.2 81 18.8 1.0 5.0 ENE 0.0 1002.7
17:50 22.1 82 18.9 0.6 3.6 E 0.3 1002.5
18:00 21.9 83 18.9 1.0 3.6 NE 0.3 1002.3
18:10 21.9 84 19.1 0.2 3.6 E 0.3 1002.0
18:20 21.8 84 19.0 0.0 0.0 N 0.3 1001.9
18:30 21.7 85 19.1 0.0 1.1 NNE 0.6 1001.9
18:40 21.3 85 18.7 0.7 5.0 NE 1.8 1002.0
18:50 21.0 86 18.6 0.1 2.5 N 2.7 1001.6
19:00 20.6 88 18.6 0.0 0.0 N 2.7 1001.5
19:10 20.5 89 18.6 0.0 0.0 N 2.7 1001.6
19:20 20.4 91 18.9 0.0 1.1 SW 3.0 1001.6
19:30 20.2 92 18.9 0.0 1.1 SW 3.0 1001.8
19:40 20.1 92 18.8 0.0 0.0 N 3.0 1001.8
19:50 20.0 93 18.9 0.0 0.0 N 3.0 1001.7
20:00 19.9 94 18.9 0.0 0.0 N 3.0 1001.6
20:10 19.9 94 18.9 0.0 0.0 N 3.3 1001.7
20:20 19.8 95 19.0 0.0 0.0 N 3.3 1001.8
20:30 19.8 95 19.0 0.0 0.0 N 3.3 1002.0
20:40 19.8 95 19.0 0.0 0.0 N 3.6 1001.7
20:50 19.6 96 19.0 0.0 1.1 SW 3.6 1001.6
21:00 19.5 96 18.9 0.1 3.6 SW 3.6 1001.8
21:10 19.5 96 18.9 0.0 1.1 SW 3.9 1001.9
21:20 19.5 96 18.9 0.1 3.6 WNW 4.2 1002.0
21:30 19.6 97 19.1 0.1 5.0 NW 4.5 1002.0
21:40 19.6 97 19.1 0.0 1.1 SW 4.8 1002.1
21:50 19.6 97 19.1 0.3 3.6 NW 5.1 1002.1
22:00 19.6 97 19.1 0.5 3.6 W 5.4 1002.3
22:10 19.5 97 19.0 0.4 5.0 WNW 5.7 1002.0
22:20 19.5 97 19.0 1.1 6.1 WSW 6.0 1001.9
22:30 19.4 97 18.9 0.1 3.6 WSW 6.3 1002.0
22:40 19.4 97 18.9 0.3 5.0 WSW 6.3 1001.9
22:50 19.4 97 18.9 0.3 5.0 WSW 6.3 1001.8
23:00 19.3 98 19.0 0.5 5.0 W 6.6 1001.7
23:10 19.4 98 19.1 0.0 2.5 WNW 6.6 1001.8
23:20 19.3 98 19.0 0.0 2.5 NNW 7.2 1001.6
23:30 19.3 98 19.0 0.0 1.1 SW 7.2 1001.6
23:40 19.4 98 19.1 0.0 0.0 N 7.5 1001.6
23:50 19.4 98 19.1 0.0 0.0 N 7.8 1001.3